| time (UTC) | temp C | wind direction | speed KPH | gust KPH | rain 1hr cm | rain 24hr cm | rain mn cm | humidity % | barometer mb |
| 20260508213611 | 23 | 255 | 16.1 | 24.1 | 0.00 | 0.00 | 0.00 | 22 | 1016.2 |
| 20260508212611 | 22 | 273 | 8.0 | 17.7 | 0.00 | 0.00 | 0.00 | 23 | 1016.3 |
| 20260508211628 | 22 | 296 | 14.5 | 22.5 | 0.00 | 0.00 | 0.00 | 23 | 1016.4 |
| 20260508210627 | 23 | 234 | 9.7 | 20.9 | 0.00 | 0.00 | 0.00 | 25 | 1016.5 |
| 20260508205621 | 22 | 286 | 17.7 | 24.1 | 0.00 | 0.00 | 0.00 | 25 | 1016.6 |
| 20260508204616 | 22 | 267 | 16.1 | 29.0 | 0.00 | 0.00 | 0.00 | 23 | 1016.7 |
| 20260508203612 | 22 | 207 | 4.8 | 16.1 | 0.00 | 0.00 | 0.00 | 25 | 1016.6 |
| 20260508202630 | 22 | 277 | 11.3 | 19.3 | 0.00 | 0.00 | 0.00 | 24 | 1016.8 |
| 20260508201629 | 22 | 110 | 1.6 | 16.1 | 0.00 | 0.00 | 0.00 | 26 | 1016.8 |
| 20260508200626 | 22 | 193 | 4.8 | 20.9 | 0.00 | 0.00 | 0.00 | 26 | 1016.8 |
| 20260508195634 | 21 | 302 | 12.9 | 20.9 | 0.00 | 0.00 | 0.00 | 27 | 1016.8 |
| 20260508194614 | 21 | 263 | 12.9 | 20.9 | 0.00 | 0.00 | 0.00 | 27 | 1016.9 |
| 20260508193611 | 21 | 247 | 8.0 | 22.5 | 0.00 | 0.00 | 0.00 | 29 | 1016.9 |
| 20260508192628 | 21 | 292 | 8.0 | 22.5 | 0.00 | 0.00 | 0.00 | 28 | 1017.0 |
| 20260508191644 | 21 | 261 | 11.3 | 20.9 | 0.00 | 0.00 | 0.00 | 30 | 1017.1 |
| 20260508190624 | 21 | 264 | 11.3 | 19.3 | 0.00 | 0.00 | 0.00 | 30 | 1017.1 |
| 20260508185615 | 21 | 284 | 11.3 | 19.3 | 0.00 | 0.00 | 0.00 | 28 | 1017.1 |
| 20260508184612 | 21 | 198 | 6.4 | 16.1 | 0.00 | 0.00 | 0.00 | 29 | 1017.1 |
| 20260508183613 | 21 | 189 | 4.8 | 14.5 | 0.00 | 0.00 | 0.00 | 33 | 1017.3 |
| 20260508182650 | 21 | 255 | 9.7 | 14.5 | 0.00 | 0.00 | 0.00 | 29 | 1017.5 |
| 20260508181646 | 20 | 171 | 1.6 | 12.9 | 0.00 | 0.00 | 0.00 | 33 | 1017.6 |
| 20260508180613 | 20 | 259 | 9.7 | 14.5 | 0.00 | 0.00 | 0.00 | 33 | 1017.6 |
| 20260508175622 | 20 | 161 | 6.4 | 14.5 | 0.00 | 0.00 | 0.00 | 34 | 1017.7 |
| 20260508174622 | 20 | 270 | 9.7 | 16.1 | 0.00 | 0.00 | 0.00 | 36 | 1017.8 |
| 20260508173618 | 19 | 269 | 6.4 | 14.5 | 0.00 | 0.00 | 0.00 | 38 | 1017.7 |
| 20260508172615 | 20 | 250 | 11.3 | 19.3 | 0.00 | 0.00 | 0.00 | 39 | 1017.8 |
| 20260508171650 | 19 | 249 | 8.0 | 17.7 | 0.00 | 0.00 | 0.00 | 42 | 1017.6 |
| 20260508170628 | 19 | 189 | 8.0 | 12.9 | 0.00 | 0.00 | 0.00 | 41 | 1017.7 |
| 20260508165617 | 19 | 267 | 8.0 | 14.5 | 0.00 | 0.00 | 0.00 | 40 | 1017.7 |
| 20260508164614 | 19 | 192 | 3.2 | 8.0 | 0.00 | 0.00 | 0.00 | 39 | 1017.7 |
| 20260508163615 | 19 | 259 | 3.2 | 8.0 | 0.00 | 0.00 | 0.00 | 37 | 1017.6 |
| 20260508162629 | 19 | 268 | 9.7 | 14.5 | 0.00 | 0.00 | 0.00 | 37 | 1017.6 |
| 20260508161626 | 18 | 190 | 0.0 | 8.0 | 0.00 | 0.00 | 0.00 | 40 | 1017.6 |
| 20260508160623 | 18 | 265 | 4.8 | 14.5 | 0.00 | 0.00 | 0.00 | 36 | 1017.6 |
| 20260508155635 | 18 | 261 | 1.6 | 9.7 | 0.00 | 0.00 | 0.00 | 36 | 1017.6 |
| 20260508154630 | 18 | 294 | 1.6 | 8.0 | 0.00 | 0.00 | 0.00 | 38 | 1017.5 |
| 20260508153628 | 18 | 194 | 1.6 | 4.8 | 0.00 | 0.00 | 0.00 | 41 | 1017.4 |
| 20260508152646 | 17 | 266 | 0.0 | 6.4 | 0.00 | 0.00 | 0.00 | 41 | 1017.4 |
| 20260508151625 | 17 | 180 | 0.0 | 0.0 | 0.00 | 0.00 | 0.00 | 43 | 1017.4 |
| 20260508150621 | 17 | 180 | 0.0 | 0.0 | 0.00 | 0.00 | 0.00 | 44 | 1017.3 |
| 20260508145627 | 16 | 161 | 0.0 | 0.0 | 0.00 | 0.00 | 0.00 | 45 | 1017.3 |
| 20260508144628 | 16 | 161 | 0.0 | 0.0 | 0.00 | 0.00 | 0.00 | 45 | 1017.2 |
| 20260508143627 | 16 | 161 | 0.0 | 1.6 | 0.00 | 0.00 | 0.00 | 45 | 1017.1 |
| 20260508142624 | 16 | 161 | 0.0 | 3.2 | 0.00 | 0.00 | 0.00 | 46 | 1017.0 |
| 20260508141619 | 16 | 161 | 3.2 | 8.0 | 0.00 | 0.00 | 0.00 | 47 | 1017.0 |
| 20260508140621 | 16 | 91 | 1.6 | 6.4 | 0.00 | 0.00 | 0.00 | 48 | 1016.9 |
| 20260508135611 | 15 | 54 | 3.2 | 6.4 | 0.00 | 0.00 | 0.00 | 48 | 1016.8 |
| 20260508134626 | 15 | 53 | 3.2 | 6.4 | 0.00 | 0.00 | 0.00 | 48 | 1016.8 |
| 20260508133648 | 14 | 53 | 4.8 | 6.4 | 0.00 | 0.00 | 0.00 | 50 | 1016.6 |
| 20260508132623 | 13 | 52 | 4.8 | 4.8 | 0.00 | 0.00 | 0.00 | 49 | 1016.6 |
| 20260508131618 | 12 | 52 | 4.8 | 6.4 | 0.00 | 0.00 | 0.00 | 49 | 1016.4 |
| 20260508130633 | 12 | 83 | 3.2 | 9.7 | 0.00 | 0.00 | 0.00 | 49 | 1016.3 |
| 20260508125623 | 12 | 90 | 6.4 | 9.7 | 0.00 | 0.00 | 0.00 | 49 | 1016.2 |
| 20260508124619 | 12 | 43 | 4.8 | 9.7 | 0.00 | 0.00 | 0.00 | 48 | 1016.1 |
| 20260508123615 | 12 | 29 | 0.0 | 8.0 | 0.00 | 0.00 | 0.00 | 47 | 1016.0 |
| 20260508122611 | 12 | 36 | 6.4 | 9.7 | 0.00 | 0.00 | 0.00 | 47 | 1015.8 |
| 20260508121613 | 12 | 38 | 4.8 | 6.4 | 0.00 | 0.00 | 0.00 | 46 | 1015.8 |
| 20260508120613 | 12 | 38 | 0.0 | 9.7 | 0.00 | 0.00 | 0.00 | 46 | 1015.7 |
| 20260508115620 | 12 | 39 | 6.4 | 11.3 | 0.00 | 0.00 | 0.00 | 45 | 1015.5 |
| 20260508114617 | 13 | 45 | 3.2 | 4.8 | 0.00 | 0.00 | 0.00 | 46 | 1015.5 |
| 20260508113616 | 13 | 45 | 4.8 | 8.0 | 0.00 | 0.00 | 0.00 | 46 | 1015.5 |
| 20260508112612 | 13 | 44 | 4.8 | 8.0 | 0.00 | 0.00 | 0.00 | 46 | 1015.4 |
| 20260508111647 | 13 | 44 | 6.4 | 8.0 | 0.00 | 0.00 | 0.00 | 45 | 1015.4 |
| 20260508110628 | 13 | 76 | 4.8 | 6.4 | 0.00 | 0.00 | 0.00 | 46 | 1015.5 |
| 20260508105636 | 13 | 46 | 3.2 | 6.4 | 0.00 | 0.00 | 0.00 | 47 | 1015.4 |
| 20260508104611 | 13 | 46 | 3.2 | 6.4 | 0.00 | 0.00 | 0.00 | 46 | 1015.4 |
| 20260508103627 | 13 | 46 | 1.6 | 8.0 | 0.00 | 0.00 | 0.00 | 47 | 1015.3 |
| 20260508102626 | 13 | 46 | 4.8 | 8.0 | 0.00 | 0.00 | 0.00 | 44 | 1015.2 |
| 20260508101620 | 13 | 40 | 3.2 | 6.4 | 0.00 | 0.00 | 0.00 | 49 | 1015.2 |
| 20260508100618 | 13 | 40 | 3.2 | 6.4 | 0.00 | 0.00 | 0.00 | 45 | 1015.2 |
| 20260508095613 | 13 | 40 | 4.8 | 8.0 | 0.00 | 0.00 | 0.00 | 44 | 1015.1 |
| 20260508094628 | 13 | 34 | 4.8 | 6.4 | 0.00 | 0.00 | 0.00 | 44 | 1015.1 |
| 20260508093625 | 14 | 34 | 3.2 | 6.4 | 0.00 | 0.00 | 0.00 | 43 | 1015.2 |
| 20260508092622 | 14 | 34 | 4.8 | 8.0 | 0.00 | 0.00 | 0.00 | 43 | 1015.1 |
| 20260508091623 | 14 | 34 | 3.2 | 6.4 | 0.00 | 0.00 | 0.00 | 43 | 1015.1 |
| 20260508090619 | 14 | 34 | 3.2 | 6.4 | 0.00 | 0.00 | 0.00 | 42 | 1015.0 |
| 20260508085625 | 14 | 34 | 3.2 | 6.4 | 0.00 | 0.00 | 0.00 | 43 | 1015.0 |
| 20260508084643 | 15 | 34 | 1.6 | 4.8 | 0.00 | 0.00 | 0.00 | 43 | 1015.1 |
| 20260508083622 | 15 | 34 | 1.6 | 4.8 | 0.00 | 0.00 | 0.00 | 44 | 1014.9 |
| 20260508082620 | 15 | 34 | 3.2 | 4.8 | 0.00 | 0.00 | 0.00 | 44 | 1015.0 |
| 20260508081616 | 15 | 34 | 4.8 | 8.0 | 0.00 | 0.00 | 0.00 | 45 | 1015.0 |
| 20260508080614 | 15 | 34 | 3.2 | 6.4 | 0.00 | 0.00 | 0.00 | 44 | 1015.1 |
| 20260508075621 | 15 | 34 | 4.8 | 6.4 | 0.00 | 0.00 | 0.00 | 43 | 1015.0 |
| 20260508074620 | 15 | 34 | 3.2 | 6.4 | 0.00 | 0.00 | 0.00 | 42 | 1014.9 |
| 20260508073635 | 15 | 34 | 3.2 | 6.4 | 0.00 | 0.00 | 0.00 | 43 | 1015.0 |
| 20260508072615 | 15 | 34 | 4.8 | 6.4 | 0.00 | 0.00 | 0.00 | 43 | 1015.0 |
| 20260508071613 | 15 | 34 | 3.2 | 4.8 | 0.00 | 0.00 | 0.00 | 42 | 1015.0 |
| 20260508070611 | 16 | 34 | 3.2 | 4.8 | 0.00 | 0.00 | 0.00 | 41 | 1014.9 |
| 20260508065620 | 16 | 34 | 3.2 | 4.8 | 0.00 | 0.00 | 0.00 | 41 | 1014.9 |
| 20260508064635 | 16 | 34 | 3.2 | 4.8 | 0.00 | 0.00 | 0.00 | 42 | 1014.9 |
| 20260508063611 | 16 | 34 | 3.2 | 4.8 | 0.00 | 0.00 | 0.00 | 40 | 1014.8 |
| 20260508062627 | 16 | 34 | 3.2 | 4.8 | 0.00 | 0.00 | 0.00 | 40 | 1014.8 |
| 20260508061628 | 16 | 34 | 4.8 | 6.4 | 0.00 | 0.00 | 0.00 | 39 | 1014.7 |
| 20260508060649 | 16 | 34 | 3.2 | 6.4 | 0.00 | 0.00 | 0.00 | 40 | 1014.7 |
| 20260508055613 | 17 | 34 | 3.2 | 4.8 | 0.00 | 0.00 | 0.00 | 38 | 1014.7 |
| 20260508054629 | 17 | 34 | 3.2 | 6.4 | 0.00 | 0.00 | 0.00 | 38 | 1014.6 |
| 20260508053625 | 17 | 34 | 4.8 | 6.4 | 0.00 | 0.00 | 0.00 | 38 | 1014.6 |
| 20260508052644 | 17 | 34 | 3.2 | 6.4 | 0.00 | 0.00 | 0.00 | 37 | 1014.5 |
| 20260508051621 | 17 | 34 | 4.8 | 6.4 | 0.00 | 0.00 | 0.00 | 36 | 1014.5 |
| 20260508050615 | 17 | 34 | 4.8 | 6.4 | 0.00 | 0.00 | 0.00 | 36 | 1014.4 |
| 20260508045622 | 17 | 34 | 3.2 | 8.0 | 0.00 | 0.00 | 0.00 | 36 | 1014.4 |
| 20260508044621 | 17 | 36 | 4.8 | 8.0 | 0.00 | 0.00 | 0.00 | 38 | 1014.4 |
| 20260508043636 | 17 | 25 | 4.8 | 6.4 | 0.00 | 0.00 | 0.00 | 38 | 1014.4 |
| 20260508042611 | 17 | 5 | 4.8 | 6.4 | 0.00 | 0.00 | 0.00 | 39 | 1014.3 |
| 20260508041611 | 17 | 345 | 4.8 | 6.4 | 0.00 | 0.00 | 0.00 | 39 | 1014.2 |
| 20260508040628 | 17 | 301 | 4.8 | 6.4 | 0.00 | 0.00 | 0.00 | 37 | 1014.3 |
| 20260508035616 | 17 | 296 | 4.8 | 6.4 | 0.00 | 0.00 | 0.00 | 39 | 1014.2 |
| 20260508034613 | 17 | 281 | 3.2 | 4.8 | 0.00 | 0.00 | 0.00 | 43 | 1014.2 |
| 20260508033634 | 18 | 280 | 3.2 | 4.8 | 0.00 | 0.00 | 0.00 | 41 | 1014.0 |
| 20260508032611 | 18 | 280 | 0.0 | 0.0 | 0.00 | 0.00 | 0.00 | 35 | 1013.9 |
| 20260508031626 | 18 | 280 | 0.0 | 0.0 | 0.00 | 0.00 | 0.00 | 33 | 1013.9 |
| 20260508030623 | 19 | 280 | 0.0 | 0.0 | 0.00 | 0.00 | 0.00 | 33 | 1013.8 |
| 20260508025615 | 20 | 280 | 0.0 | 0.0 | 0.00 | 0.00 | 0.00 | 33 | 1013.7 |
| 20260508024650 | 20 | 280 | 0.0 | 0.0 | 0.00 | 0.00 | 0.00 | 31 | 1013.6 |
| 20260508023626 | 20 | 280 | 0.0 | 0.0 | 0.00 | 0.00 | 0.00 | 30 | 1013.6 |
| 20260508022622 | 21 | 280 | 1.6 | 3.2 | 0.00 | 0.00 | 0.00 | 29 | 1013.7 |
| 20260508021623 | 22 | 280 | 0.0 | 1.6 | 0.00 | 0.00 | 0.00 | 31 | 1013.6 |
| 20260508020617 | 22 | 280 | 0.0 | 4.8 | 0.00 | 0.00 | 0.00 | 27 | 1013.6 |
| 20260508015625 | 22 | 279 | 1.6 | 6.4 | 0.00 | 0.00 | 0.00 | 27 | 1013.6 |
| 20260508014626 | 22 | 297 | 3.2 | 8.0 | 0.00 | 0.00 | 0.00 | 27 | 1013.4 |
| 20260508013623 | 22 | 278 | 4.8 | 11.3 | 0.00 | 0.00 | 0.00 | 26 | 1013.5 |
| 20260508012620 | 22 | 282 | 6.4 | 11.3 | 0.00 | 0.00 | 0.00 | 26 | 1013.5 |
| 20260508011619 | 23 | 260 | 6.4 | 14.5 | 0.00 | 0.00 | 0.00 | 26 | 1013.6 |
| 20260508010616 | 23 | 309 | 8.0 | 14.5 | 0.00 | 0.00 | 0.00 | 26 | 1013.7 |
| 20260508005627 | 23 | 269 | 0.0 | 12.9 | 0.00 | 0.00 | 0.00 | 27 | 1013.8 |
| 20260508004624 | 23 | 292 | 9.7 | 14.5 | 0.00 | 0.00 | 0.00 | 26 | 1013.8 |
| 20260508003626 | 23 | 212 | 6.4 | 11.3 | 0.00 | 0.00 | 0.00 | 25 | 1013.7 |
| 20260508002623 | 23 | 248 | 4.8 | 12.9 | 0.00 | 0.00 | 0.00 | 25 | 1013.7 |
| 20260508001621 | 23 | 296 | 6.4 | 11.3 | 0.00 | 0.00 | 0.00 | 25 | 1013.7 |
| 20260508000623 | 23 | 136 | 3.2 | 11.3 | 0.00 | 0.00 | 0.00 | 25 | 1013.9 |
| 20260507235616 | 23 | 255 | 8.0 | 12.9 | 0.00 | 0.00 | 0.00 | 25 | 1014.1 |
| 20260507234614 | 23 | 208 | 6.4 | 12.9 | 0.00 | 0.00 | 0.00 | 26 | 1014.2 |
| 20260507233631 | 23 | 100 | 3.2 | 11.3 | 0.00 | 0.00 | 0.00 | 26 | 1014.3 |
| 20260507232629 | 23 | 223 | 3.2 | 16.1 | 0.00 | 0.00 | 0.00 | 28 | 1014.4 |
| 20260507231627 | 23 | 292 | 12.9 | 19.3 | 0.00 | 0.00 | 0.00 | 25 | 1014.5 |
| 20260507230624 | 23 | 316 | 3.2 | 8.0 | 0.00 | 0.00 | 0.00 | 25 | 1014.5 |
| 20260507225613 | 22 | 292 | 1.6 | 11.3 | 0.00 | 0.00 | 0.00 | 27 | 1014.7 |
| 20260507224615 | 22 | 211 | 4.8 | 9.7 | 0.00 | 0.00 | 0.00 | 28 | 1015.0 |
| 20260507223613 | 22 | 290 | 4.8 | 11.3 | 0.00 | 0.00 | 0.00 | 27 | 1015.1 |
| 20260507222629 | 21 | 209 | 1.6 | 11.3 | 0.00 | 0.00 | 0.00 | 29 | 1015.2 |
| 20260507221611 | 21 | 263 | 6.4 | 14.5 | 0.00 | 0.00 | 0.00 | 28 | 1015.4 |
| 20260507220627 | 21 | 291 | 8.0 | 12.9 | 0.00 | 0.00 | 0.00 | 28 | 1015.5 |
| 20260507215615 | 21 | 235 | 11.3 | 19.3 | 0.00 | 0.00 | 0.00 | 27 | 1015.7 |
| 20260507214613 | 21 | 248 | 11.3 | 19.3 | 0.00 | 0.00 | 0.00 | 28 | 1015.7 |